Schedule Details


Flight Number: CTN4457
Departure: Brussels National (EBBR) at 18:30
Arrival: Franjo Tudman (LDZA) at 20:20
Route: SPI UL607 PELIX UZ210 LIRSU UZ315 RIDAR UZ738 MUN UM867 VAROB DCT PIKIT DCT ARGOM

Weather Information
EBBR 092250Z 05005KT CAVOK 11/06 Q1026 NOSIG
LDZA 092300Z 25004KT CAVOK 05/M00 Q1022 NOSIG
Schedule Frequency

Route Map